Time;durP1;ratioP1;P1;durP2;ratioP2;P2;SDS_P1;SDS_P2;PMS_P1;PMS_P2;Temp;Humidity;BMP_temperature;BMP_pressure;BME280_temperature;BME280_humidity;BME280_pressure;Samples;Min_cycle;Max_cycle;Signal;HPM_P1;HPM_P2
2022/08/14 00:02:25;;;;;;;2.13;1.90;;;24.30;1.00;;;;;;5057998;28;20470;-85
2022/08/14 00:04:54;;;;;;;1.90;1.80;;;24.30;1.00;;;;;;5057865;28;20486;-85
2022/08/14 00:07:24;;;;;;;1.70;1.60;;;24.20;1.00;;;;;;5054452;28;20484;-84
2022/08/14 00:09:53;;;;;;;2.10;2.00;;;24.20;1.00;;;;;;5053428;28;20466;-84
2022/08/14 00:12:45;;;;;;;2.00;1.90;;;24.30;1.00;;;;;;5054691;28;20540;-84
2022/08/14 00:15:22;;;;;;;3.53;1.50;;;24.20;1.00;;;;;;5060667;28;20451;-84
2022/08/14 00:17:52;;;;;;;2.03;1.80;;;24.20;1.00;;;;;;5056578;28;20876;-84
2022/08/14 00:20:24;;;;;;;1.90;1.80;;;24.10;1.00;;;;;;5058251;28;20451;-85
2022/08/14 00:23:06;;;;;;;1.80;1.50;;;24.10;1.00;;;;;;5059535;28;20483;-85
2022/08/14 00:25:40;;;;;;;1.90;1.73;;;24.10;1.00;;;;;;5056718;28;20465;-85
2022/08/14 00:28:12;;;;;;;2.40;1.90;;;24.10;1.00;;;;;;5055381;28;20447;-86
2022/08/14 00:30:46;;;;;;;2.40;2.20;;;24.10;1.00;;;;;;5055873;28;20459;-85
2022/08/14 00:33:14;;;;;;;3.80;1.50;;;24.10;1.00;;;;;;5057635;28;20957;-85
2022/08/14 00:35:44;;;;;;;3.20;1.80;;;24.00;1.00;;;;;;5063884;28;20455;-86
2022/08/14 00:38:34;;;;;;;2.23;2.03;;;24.00;1.00;;;;;;5054214;28;20625;-86
2022/08/14 00:41:05;;;;;;;3.00;2.03;;;24.00;1.00;;;;;;5059725;28;20844;-85
2022/08/14 00:43:38;;;;;;;3.30;1.90;;;23.90;1.00;;;;;;5056326;28;20473;-86
2022/08/14 00:46:11;;;;;;;2.63;2.43;;;23.90;1.00;;;;;;5059447;28;20446;-85
2022/08/14 00:48:59;;;;;;;3.60;2.00;;;23.90;1.00;;;;;;5066138;28;21104;-86
2022/08/14 00:51:32;;;;;;;2.63;2.43;;;23.90;1.00;;;;;;5052932;28;20889;-84
2022/08/14 00:54:07;;;;;;;1.73;1.63;;;23.80;1.00;;;;;;5051238;28;20985;-84
2022/08/14 00:56:49;;;;;;;2.90;2.70;;;23.80;1.00;;;;;;5051847;28;20550;-83
2022/08/14 00:59:17;;;;;;;2.90;2.57;;;23.80;1.00;;;;;;5054735;28;20474;-83
2022/08/14 01:01:47;;;;;;;2.30;2.20;;;23.70;1.00;;;;;;5057836;28;20482;-83
2022/08/14 01:04:17;;;;;;;3.33;2.90;;;23.70;1.00;;;;;;5055989;28;20999;-83
2022/08/14 01:07:06;;;;;;;2.30;2.10;;;23.70;1.00;;;;;;5061909;28;20540;-82
2022/08/14 01:09:37;;;;;;;2.77;2.53;;;23.70;1.00;;;;;;5060172;28;20980;-84
2022/08/14 01:12:12;;;;;;;2.87;2.63;;;23.60;1.00;;;;;;5053810;28;20493;-83
2022/08/14 01:14:55;;;;;;;2.30;2.10;;;23.60;1.00;;;;;;5056990;28;20456;-83
2022/08/14 01:21:02;;;;;;;2.30;2.10;;;23.60;1.00;;;;;;5055393;28;20444;-84
2022/08/14 01:23:10;;;;;;;3.03;2.70;;;23.60;1.00;;;;;;5058041;28;20489;-83
2022/08/14 01:25:47;;;;;;;2.57;2.37;;;23.60;1.00;;;;;;5060154;28;20462;-85
2022/08/14 01:28:16;;;;;;;2.33;2.13;;;23.60;1.00;;;;;;5061244;28;20827;-84
2022/08/14 01:31:07;;;;;;;2.50;2.30;;;23.50;1.00;;;;;;5059091;28;20485;-84
2022/08/14 01:33:39;;;;;;;2.53;2.33;;;23.50;1.00;;;;;;5057924;28;20479;-85
2022/08/14 01:36:33;;;;;;;2.50;2.30;;;23.50;1.00;;;;;;5055845;28;20442;-84
2022/08/14 01:39:07;;;;;;;2.60;2.13;;;23.40;1.00;;;;;;5054457;28;20452;-83
2022/08/14 01:41:42;;;;;;;2.47;2.37;;;23.30;1.00;;;;;;5056692;28;20583;-84
2022/08/14 01:44:14;;;;;;;2.40;2.20;;;23.30;1.00;;;;;;5058104;28;20989;-84
2022/08/14 01:47:08;;;;;;;2.60;2.40;;;23.30;1.00;;;;;;5060003;28;20461;-85
2022/08/14 01:49:39;;;;;;;2.43;2.20;;;23.20;1.00;;;;;;5059353;28;20448;-84
2022/08/14 01:52:27;;;;;;;3.00;2.33;;;23.20;1.00;;;;;;5057024;28;20498;-84
2022/08/14 01:55:16;;;;;;;2.10;1.70;;;23.20;1.00;;;;;;5060318;28;20540;-83
2022/08/14 01:57:45;;;;;;;2.80;2.60;;;23.10;1.00;;;;;;5057453;28;20463;-83
2022/08/14 02:00:29;;;;;;;2.90;2.50;;;23.10;1.00;;;;;;5056688;28;20546;-84
2022/08/14 02:03:03;;;;;;;2.87;2.47;;;23.10;1.00;;;;;;5056269;28;21025;-83
2022/08/14 02:05:34;;;;;;;2.57;2.37;;;23.00;1.00;;;;;;5054228;28;21041;-82
2022/08/14 02:08:06;;;;;;;2.30;2.20;;;23.00;1.00;;;;;;5057246;28;20597;-82
2022/08/14 02:10:40;;;;;;;2.43;2.30;;;23.00;1.00;;;;;;5060383;28;20468;-83
2022/08/14 02:13:17;;;;;;;2.40;2.20;;;22.90;1.00;;;;;;5055216;28;20464;-81
2022/08/14 02:15:46;;;;;;;2.13;2.03;;;22.90;1.00;;;;;;5056423;28;20463;-82
2022/08/14 02:18:16;;;;;;;3.17;2.93;;;22.90;1.00;;;;;;5055921;28;20459;-82
2022/08/14 02:20:47;;;;;;;3.83;2.27;;;22.90;1.00;;;;;;5055525;28;20477;-82
2022/08/14 02:23:19;;;;;;;2.40;1.93;;;22.80;1.00;;;;;;5056224;28;20483;-81
2022/08/14 02:26:03;;;;;;;3.20;2.13;;;22.80;1.00;;;;;;5054572;28;20856;-81
2022/08/14 02:28:58;;;;;;;2.57;2.40;;;22.80;1.00;;;;;;5059065;28;20483;-84
2022/08/14 02:31:31;;;;;;;2.33;2.13;;;22.70;1.00;;;;;;5054335;28;20990;-82
2022/08/14 02:34:17;;;;;;;2.63;2.43;;;22.80;1.00;;;;;;5057679;28;20459;-83
2022/08/14 02:36:52;;;;;;;2.50;2.30;;;22.70;1.00;;;;;;5053720;28;20451;-82
2022/08/14 02:39:35;;;;;;;1.97;1.87;;;22.70;1.00;;;;;;5056350;28;20454;-82
2022/08/14 02:42:08;;;;;;;2.77;2.53;;;22.70;1.00;;;;;;5059742;28;20913;-83
2022/08/14 02:44:42;;;;;;;2.57;2.40;;;22.70;1.00;;;;;;5058920;28;20483;-82
2022/08/14 02:47:18;;;;;;;3.03;2.33;;;22.70;1.00;;;;;;5052842;28;20465;-83
2022/08/14 02:49:48;;;;;;;2.33;2.10;;;22.60;1.00;;;;;;5050742;28;20473;-82
2022/08/14 02:52:22;;;;;;;2.50;2.30;;;22.60;1.00;;;;;;5063937;28;20830;-82
2022/08/14 02:55:11;;;;;;;2.00;1.90;;;22.50;1.00;;;;;;5052328;28;20486;-83
2022/08/14 02:57:51;;;;;;;2.20;2.10;;;22.50;1.00;;;;;;5053845;28;20455;-85
2022/08/14 03:00:34;;;;;;;2.40;2.20;;;22.50;1.00;;;;;;5054653;28;20455;-83
2022/08/14 03:03:07;;;;;;;2.10;1.90;;;22.50;1.00;;;;;;5055680;28;20480;-83
2022/08/14 03:05:36;;;;;;;1.87;1.77;;;22.40;1.00;;;;;;5056683;28;20480;-83
2022/08/14 03:08:10;;;;;;;2.40;2.20;;;22.40;1.00;;;;;;5055791;28;20463;-82
2022/08/14 03:10:42;;;;;;;2.27;2.10;;;22.40;1.00;;;;;;5059288;28;20999;-82
2022/08/14 03:13:18;;;;;;;2.23;2.03;;;22.40;1.00;;;;;;5059674;28;20483;-83
2022/08/14 03:15:51;;;;;;;3.00;2.17;;;22.40;1.00;;;;;;5048304;28;20444;-83
2022/08/14 03:18:26;;;;;;;2.53;2.33;;;22.30;1.00;;;;;;5056351;28;20467;-83
2022/08/14 03:21:01;;;;;;;2.13;1.93;;;22.30;1.00;;;;;;5051147;28;20465;-83
2022/08/14 03:23:32;;;;;;;2.80;2.60;;;22.30;1.00;;;;;;5054084;28;20446;-83
2022/08/14 03:26:05;;;;;;;2.50;2.30;;;22.30;1.00;;;;;;5054717;28;20322;-83
2022/08/14 03:28:39;;;;;;;2.73;2.47;;;22.20;1.00;;;;;;5063034;28;20473;-82
2022/08/14 03:31:10;;;;;;;3.17;2.97;;;22.20;1.00;;;;;;5050103;28;20465;-83
2022/08/14 03:33:41;;;;;;;3.03;2.73;;;22.20;1.00;;;;;;5054168;28;20483;-83
2022/08/14 03:36:13;;;;;;;3.10;2.90;;;22.10;1.00;;;;;;5053401;28;20450;-82
2022/08/14 03:39:02;;;;;;;2.43;2.23;;;22.10;1.00;;;;;;5054198;28;20521;-83
2022/08/14 03:41:43;;;;;;;2.80;2.70;;;22.20;1.00;;;;;;5055542;28;20463;-83
2022/08/14 03:44:14;;;;;;;3.03;2.60;;;22.10;1.00;;;;;;5057034;28;20474;-82
2022/08/14 03:47:02;;;;;;;2.60;2.40;;;22.20;1.00;;;;;;5056136;28;20458;-82
2022/08/14 03:49:32;;;;;;;2.33;2.07;;;22.10;1.00;;;;;;5053348;28;20552;-82
2022/08/14 03:52:03;;;;;;;3.03;2.13;;;22.10;1.00;;;;;;5054223;28;20490;-82
2022/08/14 03:54:45;;;;;;;2.33;2.10;;;22.00;1.00;;;;;;5055525;28;20509;-82
2022/08/14 03:57:19;;;;;;;2.00;1.90;;;22.00;1.00;;;;;;5055614;28;20462;-82
2022/08/14 03:59:51;;;;;;;2.77;2.10;;;21.90;1.00;;;;;;5055389;28;20459;-82
2022/08/14 04:02:22;;;;;;;4.47;2.30;;;21.90;1.00;;;;;;5054033;28;21080;-82
2022/08/14 04:05:05;;;;;;;2.27;2.13;;;21.90;1.00;;;;;;5048469;28;20480;-83
2022/08/14 04:07:40;;;;;;;3.80;2.33;;;21.80;1.00;;;;;;5053595;28;20455;-81
2022/08/14 04:10:29;;;;;;;2.77;2.40;;;21.80;1.00;;;;;;5059457;28;20482;-82
2022/08/14 04:13:00;;;;;;;3.30;2.20;;;21.80;1.00;;;;;;5054324;28;20470;-83
2022/08/14 04:15:33;;;;;;;2.90;2.40;;;21.70;1.00;;;;;;5053841;28;20474;-83
2022/08/14 04:18:21;;;;;;;6.10;2.50;;;21.70;1.00;;;;;;5054293;28;20458;-83
2022/08/14 04:20:50;;;;;;;2.30;2.00;;;21.70;1.00;;;;;;5050908;28;20911;-83
2022/08/14 04:23:22;;;;;;;2.07;1.93;;;21.70;1.00;;;;;;5061883;28;20567;-82
2022/08/14 04:26:01;;;;;;;2.80;2.60;;;21.60;1.00;;;;;;5055022;28;20990;-83
2022/08/14 04:28:31;;;;;;;2.43;2.33;;;21.60;1.00;;;;;;5055553;28;20454;-82
2022/08/14 04:31:22;;;;;;;3.13;2.93;;;21.60;1.00;;;;;;5052471;28;20466;-74
2022/08/14 04:34:10;;;;;;;2.27;2.00;;;21.50;1.00;;;;;;5053108;28;20443;-75
2022/08/14 04:45:20;;;;;;;5.30;3.77;;;21.40;1.00;;;;;;5055091;28;20489;-75
2022/08/14 04:50:38;;;;;;;2.37;2.17;;;21.50;1.00;;;;;;5053799;28;20451;-74
2022/08/14 04:53:14;;;;;;;3.10;2.45;;;21.60;1.00;;;;;;5057217;28;20876;-75
2022/08/14 04:55:46;;;;;;;2.63;1.90;;;21.60;1.00;;;;;;5056792;28;20213;-83
2022/08/14 04:58:20;;;;;;;3.05;2.30;;;21.60;1.00;;;;;;5056411;28;20457;-84
2022/08/14 05:01:01;;;;;;;2.30;2.10;;;21.70;1.00;;;;;;5060147;28;20200;-83
2022/08/14 05:03:34;;;;;;;3.37;2.20;;;21.80;1.00;;;;;;5055218;28;21002;-82
2022/08/14 05:06:07;;;;;;;2.23;1.90;;;21.90;1.00;;;;;;5058256;28;20478;-82
2022/08/14 05:08:55;;;;;;;2.57;2.20;;;21.90;1.00;;;;;;5058760;28;20462;-83
2022/08/14 05:11:27;;;;;;;1.87;1.77;;;21.90;1.00;;;;;;5048978;28;20446;-82
2022/08/14 05:13:56;;;;;;;3.07;2.17;;;21.90;1.00;;;;;;5056494;28;20982;-83
2022/08/14 05:16:45;;;;;;;2.87;2.53;;;21.90;1.00;;;;;;5064204;28;20565;-82
2022/08/14 05:19:16;;;;;;;2.10;2.00;;;21.90;1.00;;;;;;5070725;28;20462;-83
2022/08/14 05:21:58;;;;;;;2.20;2.10;;;22.00;1.00;;;;;;5071237;28;20502;-83
2022/08/14 05:24:45;;;;;;;3.50;3.30;;;22.00;1.00;;;;;;5072130;28;20443;-82
2022/08/14 05:27:19;;;;;;;2.63;2.43;;;22.00;1.00;;;;;;5068829;28;20477;-83
2022/08/14 05:29:51;;;;;;;2.47;2.30;;;22.00;1.00;;;;;;5063467;28;20776;-83
2022/08/14 05:32:20;;;;;;;5.13;3.10;;;22.10;1.00;;;;;;5071208;28;20485;-82
2022/08/14 05:34:51;;;;;;;2.30;2.20;;;22.10;1.00;;;;;;5072085;28;20469;-83
2022/08/14 05:37:19;;;;;;;2.73;2.53;;;22.10;1.00;;;;;;5071966;28;21011;-83
2022/08/14 05:39:47;;;;;;;3.77;2.40;;;22.20;1.00;;;;;;5072186;28;20828;-82
2022/08/14 05:42:16;;;;;;;2.73;2.57;;;22.20;1.00;;;;;;5071974;28;20466;-83
2022/08/14 05:44:54;;;;;;;3.40;3.10;;;22.20;1.00;;;;;;5064089;28;20455;-82
2022/08/14 05:47:23;;;;;;;3.77;3.47;;;22.20;1.00;;;;;;5070687;28;20482;-82
2022/08/14 05:50:02;;;;;;;2.90;2.60;;;22.30;1.00;;;;;;5071860;28;20466;-82
2022/08/14 05:52:31;;;;;;;2.80;2.60;;;22.30;1.00;;;;;;5071822;28;20478;-83
2022/08/14 05:55:09;;;;;;;3.43;3.13;;;22.30;1.00;;;;;;5071813;28;20522;-83
2022/08/14 05:57:57;;;;;;;3.80;3.50;;;22.30;1.00;;;;;;5070615;28;20963;-83
2022/08/14 06:00:29;;;;;;;4.07;3.77;;;22.40;1.00;;;;;;5072217;28;20506;-82
2022/08/14 06:03:07;;;;;;;4.23;3.40;;;22.40;1.00;;;;;;5071114;28;20527;-83
2022/08/14 06:05:37;;;;;;;2.67;2.47;;;22.50;1.00;;;;;;5070180;28;20502;-82
2022/08/14 06:08:13;;;;;;;3.30;2.80;;;22.50;1.00;;;;;;5063016;28;20552;-83
2022/08/14 06:11:04;;;;;;;2.80;2.60;;;22.50;1.00;;;;;;5068118;28;21100;-82
2022/08/14 06:13:34;;;;;;;2.90;2.80;;;22.60;1.00;;;;;;5067928;28;20479;-82
2022/08/14 06:16:15;;;;;;;3.27;2.93;;;22.70;1.00;;;;;;5061717;28;20443;-83
2022/08/14 06:18:47;;;;;;;4.90;3.50;;;22.70;1.00;;;;;;5057962;28;20448;-83
2022/08/14 06:21:21;;;;;;;2.60;2.50;;;22.80;1.00;;;;;;5060083;28;20457;-83
2022/08/14 06:23:49;;;;;;;2.47;2.27;;;22.90;1.00;;;;;;5062174;28;20543;-83
2022/08/14 06:26:18;;;;;;;2.57;2.37;;;23.00;1.00;;;;;;5067459;28;20835;-83
2022/08/14 06:28:49;;;;;;;2.73;2.53;;;23.20;1.00;;;;;;5058236;28;20618;-83
2022/08/14 06:31:19;;;;;;;3.20;3.00;;;23.30;1.00;;;;;;5060208;28;20457;-83
2022/08/14 06:33:48;;;;;;;3.03;2.83;;;23.40;1.00;;;;;;5062996;28;20492;-83
2022/08/14 06:36:38;;;;;;;3.07;2.77;;;23.50;1.00;;;;;;5056890;28;20450;-83
2022/08/14 06:39:06;;;;;;;2.23;2.03;;;23.70;1.00;;;;;;5058172;28;20453;-83
2022/08/14 06:41:38;;;;;;;2.07;1.97;;;23.90;1.00;;;;;;5060074;28;20484;-82
2022/08/14 06:44:27;;;;;;;2.07;1.87;;;24.10;1.00;;;;;;5059439;28;20435;-82
2022/08/14 06:47:00;;;;;;;2.10;2.00;;;24.20;1.00;;;;;;5058434;28;21064;-83
2022/08/14 06:49:28;;;;;;;1.80;1.70;;;24.50;1.00;;;;;;5058977;28;21240;-83
2022/08/14 06:51:59;;;;;;;1.70;1.60;;;24.70;1.50;;;;;;5062833;28;20479;-83
2022/08/14 06:54:28;;;;;;;1.57;1.47;;;24.90;2.20;;;;;;5060003;28;20450;-83
2022/08/14 06:56:58;;;;;;;1.87;1.67;;;25.00;2.70;;;;;;5059032;28;20450;-82
2022/08/14 06:59:27;;;;;;;1.60;1.50;;;25.20;3.20;;;;;;5059362;28;20561;-82
2022/08/14 07:07:39;;;;;;;3.10;3.00;;;25.50;6.50;;;;;;5063942;28;20577;-83
2022/08/14 07:10:10;;;;;;;2.53;2.40;;;25.60;7.20;;;;;;5066753;28;20454;-83
2022/08/14 07:12:44;;;;;;;1.80;1.70;;;25.70;5.60;;;;;;5059229;28;20482;-83
2022/08/14 07:15:29;;;;;;;1.40;1.30;;;25.80;2.60;;;;;;5063445;28;20461;-82
2022/08/14 07:18:01;;;;;;;1.30;1.20;;;26.00;5.10;;;;;;5056497;28;20450;-82
2022/08/14 07:20:30;;;;;;;1.33;1.23;;;26.10;4.40;;;;;;5070229;28;20455;-83
2022/08/14 07:23:01;;;;;;;1.60;1.50;;;26.30;6.20;;;;;;5069696;28;20476;-83
2022/08/14 07:25:39;;;;;;;1.57;1.47;;;26.40;5.40;;;;;;5069956;28;20458;-83
2022/08/14 07:28:12;;;;;;;1.77;1.43;;;26.40;5.70;;;;;;5058154;28;20514;-83
2022/08/14 07:30:48;;;;;;;1.53;1.43;;;26.50;5.20;;;;;;5069687;28;20494;-82
2022/08/14 07:33:20;;;;;;;2.53;1.23;;;26.50;7.00;;;;;;5069608;28;20475;-82
2022/08/14 07:35:58;;;;;;;1.33;1.23;;;26.60;5.70;;;;;;5069915;28;20455;-83
2022/08/14 07:38:29;;;;;;;2.80;1.30;;;26.60;7.20;;;;;;5069880;28;20446;-83
2022/08/14 07:41:05;;;;;;;1.70;1.60;;;26.70;8.50;;;;;;5070016;28;20461;-82
2022/08/14 07:43:42;;;;;;;1.70;1.47;;;26.70;8.10;;;;;;5061811;28;20475;-82
2022/08/14 07:46:22;;;;;;;1.80;1.70;;;26.80;19.50;;;;;;5056467;28;20496;-82
2022/08/14 07:48:58;;;;;;;1.83;1.73;;;26.90;9.60;;;;;;5068376;28;20487;-83
2022/08/14 07:51:26;;;;;;;1.60;1.50;;;26.90;7.80;;;;;;5056609;28;20948;-82
2022/08/14 07:54:03;;;;;;;2.30;1.87;;;26.90;9.40;;;;;;5070038;28;20449;-82
2022/08/14 07:56:37;;;;;;;1.77;1.67;;;26.90;7.30;;;;;;5069871;28;20464;-82
2022/08/14 07:59:16;;;;;;;1.60;1.50;;;27.00;9.10;;;;;;5067820;28;20466;-82
2022/08/14 08:01:46;;;;;;;1.40;1.30;;;27.00;6.30;;;;;;5067816;28;20569;-82
2022/08/14 08:04:24;;;;;;;1.67;1.57;;;26.90;6.60;;;;;;5060263;28;20970;-82
2022/08/14 08:06:55;;;;;;;1.53;1.43;;;27.00;7.30;;;;;;5057013;28;20466;-83
2022/08/14 08:09:28;;;;;;;1.50;1.40;;;27.00;6.30;;;;;;5062605;28;20444;-83
2022/08/14 08:12:01;;;;;;;2.33;1.63;;;27.00;7.10;;;;;;5069634;28;20470;-82
2022/08/14 08:14:37;;;;;;;1.50;1.40;;;27.00;5.50;;;;;;5072656;28;20459;-83
2022/08/14 08:17:27;;;;;;;1.70;1.60;;;27.00;7.50;;;;;;5061869;28;20482;-82
2022/08/14 08:20:02;;;;;;;2.07;1.50;;;27.10;6.90;;;;;;5066263;28;21289;-82
2022/08/14 08:22:30;;;;;;;2.20;1.80;;;27.00;6.40;;;;;;5074345;28;20455;-82
2022/08/14 08:25:01;;;;;;;1.57;1.47;;;27.00;5.60;;;;;;5073137;28;20969;-83
2022/08/14 08:27:29;;;;;;;1.70;1.60;;;27.00;6.00;;;;;;5073794;28;20536;-82
2022/08/14 08:30:06;;;;;;;1.80;1.60;;;27.00;6.70;;;;;;5071924;28;20462;-83
2022/08/14 08:32:40;;;;;;;1.60;1.50;;;27.10;5.50;;;;;;5072306;28;20952;-82
2022/08/14 08:35:17;;;;;;;1.63;1.53;;;27.20;4.70;;;;;;5063024;28;20471;-83
2022/08/14 08:37:45;;;;;;;1.63;1.53;;;27.10;5.50;;;;;;5072157;28;20481;-82
2022/08/14 08:40:24;;;;;;;1.97;1.37;;;27.20;7.80;;;;;;5071778;28;20519;-82
2022/08/14 08:42:59;;;;;;;1.60;1.50;;;27.20;5.30;;;;;;5071747;28;20948;-83
2022/08/14 08:45:28;;;;;;;1.90;1.80;;;27.10;5.00;;;;;;5070723;28;20450;-83
2022/08/14 08:47:57;;;;;;;1.67;1.57;;;27.10;4.80;;;;;;5071531;28;20889;-82
2022/08/14 08:50:29;;;;;;;2.63;1.70;;;27.10;3.70;;;;;;5072064;28;20480;-82
2022/08/14 08:53:00;;;;;;;3.00;1.50;;;27.20;4.30;;;;;;5064629;28;20905;-82
2022/08/14 08:55:33;;;;;;;1.70;1.60;;;27.20;4.20;;;;;;5072028;28;20504;-82
2022/08/14 08:58:04;;;;;;;1.80;1.70;;;27.20;4.60;;;;;;5071530;28;20490;-82
2022/08/14 09:00:46;;;;;;;1.70;1.60;;;27.20;4.30;;;;;;5072333;28;20460;-82
2022/08/14 09:03:19;;;;;;;1.63;1.53;;;27.30;4.90;;;;;;5071901;28;20834;-82
2022/08/14 09:05:52;;;;;;;1.73;1.60;;;27.30;4.90;;;;;;5061360;28;20458;-82
2022/08/14 09:08:24;;;;;;;2.30;1.60;;;27.30;5.00;;;;;;5071427;28;20470;-82
2022/08/14 09:11:02;;;;;;;1.70;1.60;;;27.30;5.20;;;;;;5058776;28;21066;-83
2022/08/14 09:13:49;;;;;;;1.70;1.60;;;27.30;4.60;;;;;;5067213;28;20475;-82
2022/08/14 09:16:21;;;;;;;1.57;1.47;;;27.30;5.20;;;;;;5071439;28;20490;-82
2022/08/14 09:18:52;;;;;;;1.90;1.80;;;27.40;5.90;;;;;;5072374;28;20681;-82
2022/08/14 09:21:22;;;;;;;1.70;1.60;;;27.50;8.80;;;;;;5070482;28;21025;-82
2022/08/14 09:23:58;;;;;;;1.97;1.77;;;27.50;17.20;;;;;;5072012;28;20511;-82
2022/08/14 09:26:47;;;;;;;1.60;1.50;;;27.60;7.40;;;;;;5060196;28;20479;-82
2022/08/14 09:29:17;;;;;;;2.23;1.80;;;27.40;5.40;;;;;;5065964;28;20513;-82
2022/08/14 09:31:54;;;;;;;1.70;1.60;;;27.40;4.30;;;;;;5070959;28;20470;-82
2022/08/14 09:34:42;;;;;;;2.00;1.60;;;27.50;6.90;;;;;;5071802;28;20454;-82
2022/08/14 09:37:42;;;;;;;1.87;1.77;;;27.60;5.80;;;;;;5071569;28;20515;-82
2022/08/14 09:40:20;;;;;;;1.70;1.60;;;27.70;6.80;;;;;;5071545;28;20462;-82
2022/08/14 09:43:03;;;;;;;1.67;1.57;;;27.80;7.40;;;;;;5067400;28;20500;-82
2022/08/14 09:45:36;;;;;;;2.03;1.80;;;27.80;7.40;;;;;;5065202;28;20447;-82
2022/08/14 09:48:21;;;;;;;1.70;1.60;;;27.80;7.20;;;;;;5067126;28;20470;-82
2022/08/14 09:50:58;;;;;;;1.80;1.70;;;27.80;8.10;;;;;;5071298;28;20504;-82
2022/08/14 09:53:42;;;;;;;1.90;1.80;;;27.90;9.20;;;;;;5070391;28;20470;-82
2022/08/14 09:56:31;;;;;;;1.60;1.50;;;28.00;8.90;;;;;;5069745;28;20462;-82
2022/08/14 09:59:13;;;;;;;2.00;1.90;;;28.00;11.00;;;;;;5070718;28;20500;-82
2022/08/14 10:01:43;;;;;;;1.90;1.80;;;28.10;7.90;;;;;;5068342;28;20983;-83
2022/08/14 10:04:24;;;;;;;1.97;1.77;;;28.10;7.70;;;;;;5071227;28;21015;-82
2022/08/14 10:07:03;;;;;;;1.80;1.70;;;28.10;8.60;;;;;;5070933;28;20512;-83
2022/08/14 10:09:32;;;;;;;2.07;1.97;;;28.10;7.10;;;;;;5069437;28;20471;-83
2022/08/14 10:12:03;;;;;;;1.70;1.60;;;28.00;7.90;;;;;;5071090;28;20486;-82
2022/08/14 10:14:34;;;;;;;1.63;1.53;;;28.10;7.70;;;;;;5057727;28;20452;-83
2022/08/14 10:17:06;;;;;;;1.50;1.40;;;28.20;9.20;;;;;;5063585;28;20458;-83
2022/08/14 10:19:46;;;;;;;2.03;1.83;;;28.30;9.30;;;;;;5070615;28;20855;-82
2022/08/14 10:22:15;;;;;;;1.70;1.60;;;28.30;9.00;;;;;;5070216;28;20470;-83
2022/08/14 10:25:13;;;;;;;2.13;2.03;;;28.30;11.20;;;;;;5069945;28;20462;-83
2022/08/14 10:27:45;;;;;;;3.10;2.40;;;28.40;10.10;;;;;;5059885;28;20448;-82
2022/08/14 10:30:18;;;;;;;1.70;1.60;;;28.40;10.90;;;;;;5067753;28;20996;-83
2022/08/14 10:32:53;;;;;;;1.80;1.70;;;28.40;9.00;;;;;;5070264;28;20482;-83
2022/08/14 10:35:22;;;;;;;1.90;1.80;;;28.40;10.80;;;;;;5070214;28;20459;-83
2022/08/14 10:38:02;;;;;;;1.90;1.80;;;28.40;10.30;;;;;;5070722;28;20525;-83
2022/08/14 10:40:34;;;;;;;2.03;1.93;;;28.40;9.40;;;;;;5071211;28;20469;-83
2022/08/14 10:43:19;;;;;;;2.13;1.80;;;28.40;9.90;;;;;;5068955;28;20859;-83
2022/08/14 10:46:00;;;;;;;2.10;2.00;;;28.40;7.70;;;;;;5055417;28;20473;-83
2022/08/14 10:48:59;;;;;;;1.80;1.70;;;28.30;8.00;;;;;;5069920;28;20565;-82
2022/08/14 10:51:33;;;;;;;1.90;1.80;;;28.40;8.30;;;;;;5068185;28;20549;-82
2022/08/14 10:54:08;;;;;;;1.80;1.70;;;28.50;8.60;;;;;;5068456;28;20557;-83
2022/08/14 10:56:57;;;;;;;1.53;1.43;;;28.50;9.60;;;;;;5069083;28;20531;-83
2022/08/14 10:59:25;;;;;;;2.17;1.90;;;28.60;10.50;;;;;;5068114;28;20457;-83
2022/08/14 11:02:19;;;;;;;2.30;2.20;;;28.70;11.00;;;;;;5069353;28;20478;-83
2022/08/14 11:05:11;;;;;;;1.63;1.50;;;28.70;7.70;;;;;;5069046;28;20489;-82
2022/08/14 11:07:54;;;;;;;2.00;1.80;;;28.60;6.60;;;;;;5063446;28;20443;-82
2022/08/14 11:10:26;;;;;;;1.70;1.60;;;28.50;6.60;;;;;;5063812;28;20493;-83
2022/08/14 11:12:56;;;;;;;1.93;1.53;;;28.60;7.20;;;;;;5067427;28;20501;-83
2022/08/14 11:15:28;;;;;;;1.60;1.50;;;28.70;7.90;;;;;;5054720;28;20892;-82
2022/08/14 11:18:00;;;;;;;1.60;1.50;;;28.80;8.90;;;;;;5069138;28;20489;-82
2022/08/14 11:20:31;;;;;;;1.90;1.80;;;28.90;10.60;;;;;;5069303;28;20449;-83
2022/08/14 11:23:01;;;;;;;1.83;1.73;;;28.90;8.30;;;;;;5069373;28;20632;-83
2022/08/14 11:25:31;;;;;;;1.93;1.77;;;28.90;7.60;;;;;;5062713;28;20451;-82
2022/08/14 11:28:12;;;;;;;1.60;1.50;;;29.00;8.70;;;;;;5067429;28;20454;-83
2022/08/14 11:30:49;;;;;;;1.87;1.73;;;29.10;9.50;;;;;;5068614;28;20982;-83
2022/08/14 11:33:29;;;;;;;1.73;1.63;;;29.10;9.70;;;;;;5069229;28;20469;-82
2022/08/14 11:36:00;;;;;;;2.73;1.57;;;29.20;10.30;;;;;;5067519;28;20458;-83
2022/08/14 11:38:35;;;;;;;1.63;1.53;;;29.20;11.00;;;;;;5069061;28;20496;-82
2022/08/14 11:41:06;;;;;;;1.90;1.80;;;29.20;10.10;;;;;;5066897;28;20466;-82
2022/08/14 11:43:40;;;;;;;1.93;1.80;;;29.20;10.90;;;;;;5051551;28;20529;-83
2022/08/14 11:46:09;;;;;;;1.50;1.40;;;29.30;9.20;;;;;;5070770;28;20461;-83
2022/08/14 11:49:00;;;;;;;1.60;1.50;;;29.30;9.10;;;;;;5056940;28;21024;-82
2022/08/14 11:51:33;;;;;;;1.93;1.83;;;29.30;10.10;;;;;;5068319;28;20500;-83
2022/08/14 11:54:18;;;;;;;1.60;1.50;;;29.30;9.10;;;;;;5068909;28;20461;-83
2022/08/14 11:56:48;;;;;;;1.80;1.70;;;29.40;9.50;;;;;;5068572;28;20512;-82
2022/08/14 11:59:20;;;;;;;1.60;1.50;;;29.40;8.90;;;;;;5068039;28;20454;-83
2022/08/14 12:02:09;;;;;;;1.57;1.47;;;29.50;9.90;;;;;;5056593;28;20474;-83
2022/08/14 12:04:59;;;;;;;1.93;1.63;;;29.50;19.90;;;;;;5068537;28;20443;-80
2022/08/14 12:07:27;;;;;;;1.90;1.80;;;29.60;10.50;;;;;;5066944;28;20958;-81
2022/08/14 12:09:59;;;;;;;1.60;1.50;;;29.60;10.20;;;;;;5069036;28;20477;-81
2022/08/14 12:12:48;;;;;;;1.43;1.33;;;29.50;8.70;;;;;;5065136;28;20467;-80
2022/08/14 12:15:32;;;;;;;1.57;1.47;;;29.50;8.70;;;;;;5059259;28;20510;-81
2022/08/14 12:18:03;;;;;;;1.50;1.40;;;29.50;5.80;;;;;;5055382;28;20450;-80
2022/08/14 12:20:36;;;;;;;1.40;1.20;;;29.50;6.70;;;;;;5068664;28;20497;-83
2022/08/14 12:23:22;;;;;;;1.60;1.50;;;29.50;6.00;;;;;;5066847;28;20502;-83
2022/08/14 12:26:03;;;;;;;1.87;1.47;;;29.60;6.90;;;;;;5066737;28;20504;-83
2022/08/14 12:28:52;;;;;;;1.27;1.27;;;29.60;6.20;;;;;;5067203;28;20541;-83
2022/08/14 12:31:27;;;;;;;2.33;1.30;;;29.70;8.80;;;;;;5067958;28;20531;-82
2022/08/14 12:34:07;;;;;;;1.60;1.50;;;29.70;9.70;;;;;;5055293;28;20446;-83
2022/08/14 12:36:39;;;;;;;1.20;1.20;;;29.60;10.00;;;;;;5068428;28;20450;-83
2022/08/14 12:39:19;;;;;;;1.60;1.40;;;29.80;9.50;;;;;;5068668;28;20447;-83
2022/08/14 12:41:51;;;;;;;1.57;1.47;;;29.90;10.50;;;;;;5068253;28;20459;-83
2022/08/14 12:44:30;;;;;;;1.53;1.43;;;29.90;9.80;;;;;;5067974;28;20859;-83
2022/08/14 12:47:05;;;;;;;1.40;1.30;;;29.90;8.30;;;;;;5067035;28;20699;-83
2022/08/14 12:49:34;;;;;;;1.37;1.27;;;29.90;7.30;;;;;;5062894;28;21335;-83
2022/08/14 12:52:06;;;;;;;1.53;1.43;;;30.00;10.10;;;;;;5060946;28;20474;-82
2022/08/14 12:54:44;;;;;;;1.20;1.20;;;30.00;7.50;;;;;;5055804;28;20546;-82
2022/08/14 12:57:36;;;;;;;2.60;1.20;;;30.10;9.20;;;;;;5071403;28;20496;-83
2022/08/14 13:00:17;;;;;;;1.53;1.43;;;30.10;7.60;;;;;;5072238;28;20556;-83
2022/08/14 13:02:53;;;;;;;1.10;1.00;;;30.10;9.10;;;;;;5072109;28;20682;-84
2022/08/14 13:05:24;;;;;;;1.50;1.40;;;30.10;7.60;;;;;;5069766;28;20450;-83
2022/08/14 13:07:57;;;;;;;1.43;1.33;;;30.10;8.20;;;;;;5064287;28;20450;-83
2022/08/14 13:10:28;;;;;;;1.50;1.40;;;30.10;7.80;;;;;;5071443;28;20493;-83
2022/08/14 13:13:36;;;;;;;1.40;1.30;;;30.10;8.20;;;;;;5066472;28;20462;-83
2022/08/14 13:19:15;;;;;;;1.17;1.17;;;30.20;7.30;;;;;;5071237;28;20523;-82
2022/08/14 13:21:45;;;;;;;1.10;1.10;;;30.20;7.60;;;;;;5071774;28;21021;-83
2022/08/14 13:24:37;;;;;;;1.10;1.10;;;30.20;18.00;;;;;;5062875;28;20949;-83
2022/08/14 13:27:06;;;;;;;1.40;1.30;;;30.20;6.10;;;;;;5072064;28;20961;-83
2022/08/14 13:29:41;;;;;;;1.30;1.20;;;30.10;6.30;;;;;;5071689;28;20478;-83
2022/08/14 13:32:14;;;;;;;1.27;1.20;;;30.20;4.90;;;;;;5070864;28;20481;-83
2022/08/14 13:34:44;;;;;;;1.63;1.07;;;30.20;5.80;;;;;;5070890;28;20497;-83
2022/08/14 13:37:15;;;;;;;1.33;1.23;;;30.20;6.70;;;;;;5071512;28;21025;-83
2022/08/14 13:39:49;;;;;;;1.10;1.10;;;30.20;5.50;;;;;;5070188;28;20453;-83
2022/08/14 13:42:27;;;;;;;1.20;1.10;;;30.20;5.10;;;;;;5059467;28;20535;-83
2022/08/14 13:45:01;;;;;;;1.30;1.20;;;30.20;7.10;;;;;;5067061;28;20526;-83
2022/08/14 13:47:31;;;;;;;1.10;1.10;;;30.20;5.90;;;;;;5071585;28;20830;-82
2022/08/14 13:50:02;;;;;;;1.20;1.20;;;30.20;4.90;;;;;;5069431;28;20573;-83
2022/08/14 13:52:39;;;;;;;1.23;1.20;;;30.30;6.00;;;;;;5060577;28;20480;-83
2022/08/14 13:55:24;;;;;;;1.30;1.20;;;30.30;6.00;;;;;;5057784;28;20455;-83
2022/08/14 13:57:58;;;;;;;1.40;1.30;;;30.30;6.90;;;;;;5066064;28;20452;-83
2022/08/14 14:00:33;;;;;;;1.27;1.20;;;30.40;6.10;;;;;;5061695;28;20524;-83
2022/08/14 14:03:06;;;;;;;1.30;1.20;;;30.40;6.80;;;;;;5067469;28;20504;-83
2022/08/14 14:05:38;;;;;;;1.23;1.13;;;30.40;6.00;;;;;;5070605;28;20481;-83